Time;durP1;ratioP1;P1;durP2;ratioP2;P2;SDS_P1;SDS_P2;PMS_P1;PMS_P2;Temp;Humidity;BMP_temperature;BMP_pressure;BME280_temperature;BME280_humidity;BME280_pressure;Samples;Min_cycle;Max_cycle;Signal;HPM_P1;HPM_P2
2024/02/21 00:00:50;;;;;;;13.50;7.73;;;9.10;1.00;;;;;;5087349;28;20542;-75
2024/02/21 00:03:16;;;;;;;20.23;9.57;;;9.10;1.00;;;;;;5087926;28;20581;-75
2024/02/21 00:05:44;;;;;;;13.43;8.00;;;9.10;1.00;;;;;;5091109;27;20484;-75
2024/02/21 00:08:11;;;;;;;13.70;8.50;;;9.10;1.00;;;;;;5094907;27;20466;-74
2024/02/21 00:10:38;;;;;;;13.77;7.83;;;9.10;1.00;;;;;;5084960;28;20470;-74
2024/02/21 00:13:06;;;;;;;21.97;8.13;;;9.10;1.00;;;;;;5096090;27;20461;-74
2024/02/21 00:15:33;;;;;;;12.27;8.20;;;9.20;1.00;;;;;;5091029;27;21389;-74
2024/02/21 00:18:00;;;;;;;14.03;7.80;;;9.20;1.00;;;;;;5108544;27;20897;-74
2024/02/21 00:20:27;;;;;;;14.13;8.77;;;9.20;1.00;;;;;;5100447;27;20489;-74
2024/02/21 00:22:54;;;;;;;13.60;7.50;;;9.30;1.00;;;;;;5104164;27;20486;-74
2024/02/21 00:25:21;;;;;;;14.63;7.70;;;9.20;1.00;;;;;;5097232;28;20456;-74
2024/02/21 00:27:48;;;;;;;19.67;9.20;;;9.20;1.00;;;;;;5099965;27;20546;-76
2024/02/21 00:30:16;;;;;;;13.10;6.77;;;9.20;1.00;;;;;;5093460;27;20497;-74
2024/02/21 00:32:43;;;;;;;10.60;7.00;;;9.20;1.00;;;;;;5094651;27;20443;-74
2024/02/21 00:35:10;;;;;;;11.80;7.63;;;9.20;1.00;;;;;;5087844;28;20557;-76
2024/02/21 00:37:37;;;;;;;10.33;6.97;;;9.10;1.00;;;;;;5103522;27;20489;-74
2024/02/21 00:40:05;;;;;;;15.20;7.73;;;9.10;1.00;;;;;;5086192;28;20501;-74
2024/02/21 00:42:32;;;;;;;11.23;7.20;;;9.00;1.00;;;;;;5108748;27;20446;-73
2024/02/21 00:44:59;;;;;;;21.73;7.50;;;9.00;1.00;;;;;;5092769;27;21015;-75
2024/02/21 00:47:28;;;;;;;17.20;8.07;;;9.00;1.00;;;;;;5080065;28;20993;-73
2024/02/21 00:49:55;;;;;;;10.57;6.50;;;9.00;1.00;;;;;;5094584;27;20551;-73
2024/02/21 00:52:21;;;;;;;14.90;6.93;;;9.00;1.00;;;;;;5096201;27;20458;-74
2024/02/21 00:54:49;;;;;;;11.90;6.57;;;8.90;1.00;;;;;;5100594;27;20469;-73
2024/02/21 00:57:16;;;;;;;13.03;6.73;;;9.00;1.00;;;;;;5097797;28;20454;-73
2024/02/21 00:59:43;;;;;;;14.43;6.23;;;8.90;1.00;;;;;;5092057;28;20446;-75
2024/02/21 01:02:10;;;;;;;14.60;7.90;;;9.00;1.00;;;;;;5103595;27;20504;-76
2024/02/21 01:04:38;;;;;;;11.93;6.50;;;8.90;1.00;;;;;;5087250;28;20543;-73
2024/02/21 01:07:05;;;;;;;14.50;7.17;;;9.00;1.00;;;;;;5085538;28;21241;-76
2024/02/21 01:09:32;;;;;;;14.50;7.30;;;9.00;1.00;;;;;;5087425;27;20550;-74
2024/02/21 01:11:59;;;;;;;15.60;7.00;;;9.00;1.00;;;;;;5095693;28;20462;-74
2024/02/21 01:14:26;;;;;;;11.37;6.70;;;9.00;1.00;;;;;;5102581;27;20541;-74
2024/02/21 01:16:53;;;;;;;14.37;7.10;;;9.00;1.00;;;;;;5087406;27;20504;-75
2024/02/21 01:19:20;;;;;;;15.43;5.93;;;9.00;1.00;;;;;;5089621;27;20687;-74
2024/02/21 01:21:48;;;;;;;11.73;6.17;;;9.00;1.00;;;;;;5109164;27;20453;-73
2024/02/21 01:24:16;;;;;;;12.50;6.87;;;8.90;1.00;;;;;;5108910;27;20552;-74
2024/02/21 01:26:43;;;;;;;7.10;5.97;;;8.90;1.00;;;;;;5109218;27;20462;-73
2024/02/21 01:29:11;;;;;;;10.93;6.73;;;8.90;1.00;;;;;;5107062;27;20522;-74
2024/02/21 01:31:39;;;;;;;12.27;6.30;;;9.00;1.00;;;;;;5087968;27;20462;-73
2024/02/21 01:34:06;;;;;;;9.07;6.53;;;9.00;1.00;;;;;;5087119;28;20520;-74
2024/02/21 01:36:33;;;;;;;11.70;6.43;;;9.00;1.00;;;;;;5089176;28;20455;-73
2024/02/21 01:39:01;;;;;;;12.60;6.30;;;8.90;1.00;;;;;;5090857;27;20551;-73
2024/02/21 01:41:30;;;;;;;9.30;5.77;;;8.90;1.00;;;;;;5093304;28;20569;-74
2024/02/21 01:43:57;;;;;;;10.60;6.40;;;9.00;1.00;;;;;;5105626;27;20463;-74
2024/02/21 01:46:28;;;;;;;8.00;5.67;;;9.00;1.00;;;;;;5099336;27;20480;-73
2024/02/21 01:48:55;;;;;;;9.43;5.70;;;9.00;1.00;;;;;;5103001;27;20465;-74
2024/02/21 01:51:23;;;;;;;13.27;6.40;;;9.10;1.00;;;;;;5105548;27;20474;-74
2024/02/21 01:53:51;;;;;;;9.67;5.33;;;9.10;1.00;;;;;;5110249;27;20948;-74
2024/02/21 01:56:21;;;;;;;15.30;6.60;;;9.10;1.00;;;;;;5107132;27;20462;-75
2024/02/21 01:58:49;;;;;;;11.77;6.23;;;9.10;1.00;;;;;;5087313;27;20451;-74
2024/02/21 02:01:18;;;;;;;14.43;6.77;;;9.10;1.00;;;;;;5089068;27;20857;-74
2024/02/21 02:03:47;;;;;;;13.93;6.00;;;9.10;1.00;;;;;;5084122;28;20549;-73
2024/02/21 02:06:16;;;;;;;10.27;5.83;;;9.10;1.00;;;;;;5087125;28;20477;-74
2024/02/21 02:08:43;;;;;;;10.37;6.13;;;9.10;1.00;;;;;;5078616;28;20968;-73
2024/02/21 02:11:10;;;;;;;12.00;5.97;;;9.10;1.00;;;;;;5104392;27;20555;-73
2024/02/21 02:13:39;;;;;;;12.57;6.63;;;9.00;1.00;;;;;;5099571;27;20476;-74
2024/02/21 02:16:07;;;;;;;10.37;5.57;;;9.00;1.00;;;;;;5081721;27;22344;-74
2024/02/21 02:18:34;;;;;;;14.90;6.80;;;9.10;1.00;;;;;;5093134;27;20496;-74
2024/02/21 02:21:01;;;;;;;9.90;5.70;;;9.10;1.00;;;;;;5110209;27;21193;-73
2024/02/21 02:23:30;;;;;;;9.10;5.73;;;9.10;1.00;;;;;;5103988;27;20556;-73
2024/02/21 02:25:57;;;;;;;13.10;6.00;;;9.00;1.00;;;;;;5109330;27;20532;-72
2024/02/21 02:28:24;;;;;;;9.10;6.07;;;8.90;1.00;;;;;;5088594;27;20516;-75
2024/02/21 02:30:51;;;;;;;18.03;6.63;;;8.80;1.00;;;;;;5084220;28;21354;-75
2024/02/21 02:33:18;;;;;;;16.07;7.60;;;8.70;1.00;;;;;;5105071;27;20563;-73
2024/02/21 02:35:46;;;;;;;9.97;6.53;;;8.60;1.00;;;;;;5080983;27;20451;-75
2024/02/21 02:38:13;;;;;;;11.93;7.37;;;8.50;1.00;;;;;;5105782;27;22200;-73
2024/02/21 02:40:42;;;;;;;11.57;7.30;;;8.40;1.00;;;;;;5087960;27;20461;-74
2024/02/21 02:43:10;;;;;;;11.20;7.33;;;8.30;1.00;;;;;;5088696;28;20971;-74
2024/02/21 02:45:37;;;;;;;17.83;6.65;;;8.30;1.00;;;;;;5105560;27;20546;-72
2024/02/21 02:48:04;;;;;;;14.43;6.80;;;8.30;1.00;;;;;;5104270;27;20251;-73
2024/02/21 02:57:17;;;;;;;12.25;6.85;;;8.00;1.00;;;;;;5095091;27;21199;-73
2024/02/21 02:59:47;;;;;;;16.27;6.22;;;8.00;1.00;;;;;;5088321;28;20240;-74
2024/02/21 03:02:15;;;;;;;12.20;7.00;;;8.00;1.00;;;;;;5092089;27;20330;-72
2024/02/21 03:04:42;;;;;;;14.90;7.77;;;8.00;1.00;;;;;;5090862;27;20467;-76
2024/02/21 03:07:11;;;;;;;11.23;7.20;;;8.00;1.00;;;;;;5091309;27;20464;-73
2024/02/21 03:09:38;;;;;;;14.05;6.60;;;7.90;1.00;;;;;;5084424;27;20501;-73
2024/02/21 03:12:05;;;;;;;10.82;6.60;;;7.90;1.00;;;;;;5085201;28;20300;-75
2024/02/21 03:14:34;;;;;;;15.50;7.22;;;7.90;1.00;;;;;;5077272;27;20695;-74
2024/02/21 03:17:02;;;;;;;13.97;7.60;;;7.90;1.00;;;;;;5086545;27;20250;-73
2024/02/21 03:19:29;;;;;;;11.70;6.85;;;7.90;1.00;;;;;;5088471;27;20478;-73
2024/02/21 03:21:56;;;;;;;18.57;8.23;;;7.90;1.00;;;;;;5102124;27;20243;-75
2024/02/21 03:24:23;;;;;;;12.43;7.40;;;7.80;1.00;;;;;;5086754;28;21976;-74
2024/02/21 03:26:50;;;;;;;14.73;8.15;;;7.90;1.00;;;;;;5101412;27;20461;-73
2024/02/21 03:29:17;;;;;;;15.23;6.70;;;7.90;1.00;;;;;;5089671;28;20351;-73
2024/02/21 03:31:46;;;;;;;10.63;7.30;;;8.00;1.00;;;;;;5082379;28;20321;-71
2024/02/21 03:34:13;;;;;;;17.40;7.68;;;8.00;1.00;;;;;;5099407;27;20804;-73
2024/02/21 03:36:41;;;;;;;14.10;7.53;;;8.00;1.00;;;;;;5102983;27;20308;-73
2024/02/21 03:39:09;;;;;;;16.97;7.67;;;7.90;1.00;;;;;;5084448;28;20246;-74
2024/02/21 03:41:36;;;;;;;15.88;8.18;;;7.90;1.00;;;;;;5104430;27;20985;-73
2024/02/21 03:44:03;;;;;;;14.05;8.25;;;7.90;1.00;;;;;;5088760;28;20323;-73
2024/02/21 03:46:31;;;;;;;12.52;7.90;;;7.80;1.00;;;;;;5105567;27;20236;-73
2024/02/21 03:49:00;;;;;;;14.15;6.95;;;7.90;1.00;;;;;;5089052;28;20235;-73
2024/02/21 03:51:27;;;;;;;13.63;8.17;;;7.80;1.00;;;;;;5089097;27;20238;-73
2024/02/21 03:53:54;;;;;;;15.77;9.52;;;7.80;1.00;;;;;;5096570;27;20447;-74
2024/02/21 03:56:24;;;;;;;15.52;7.93;;;7.90;1.00;;;;;;5086924;28;20326;-74
2024/02/21 03:58:51;;;;;;;14.10;8.43;;;7.80;1.00;;;;;;5094694;27;21089;-74
2024/02/21 04:01:18;;;;;;;20.13;9.60;;;7.80;1.00;;;;;;5109043;27;20461;-73
2024/02/21 04:03:46;;;;;;;13.60;8.13;;;7.80;1.00;;;;;;5091048;27;20965;-74
2024/02/21 04:06:14;;;;;;;16.67;9.32;;;7.80;1.00;;;;;;5106320;27;20316;-74
2024/02/21 04:08:41;;;;;;;20.90;9.70;;;7.70;1.00;;;;;;5101216;27;20239;-73
2024/02/21 04:11:08;;;;;;;18.50;10.35;;;7.70;1.00;;;;;;5103511;27;20234;-74
2024/02/21 04:13:35;;;;;;;15.90;9.38;;;7.80;1.00;;;;;;5094375;27;20247;-73
2024/02/21 04:16:03;;;;;;;14.13;7.72;;;7.80;1.00;;;;;;5080547;28;20237;-74
2024/02/21 04:18:30;;;;;;;10.50;8.00;;;7.70;1.00;;;;;;5095327;27;20989;-72
2024/02/21 04:20:57;;;;;;;18.00;8.35;;;7.70;1.00;;;;;;5093746;27;20466;-76
2024/02/21 04:23:25;;;;;;;16.30;8.43;;;7.70;1.00;;;;;;5094138;28;20330;-73
2024/02/21 04:25:52;;;;;;;12.67;8.60;;;7.70;1.00;;;;;;5107921;27;20928;-72
2024/02/21 04:28:19;;;;;;;13.40;8.65;;;7.70;1.00;;;;;;5106981;27;20960;-72
2024/02/21 04:30:46;;;;;;;19.70;8.40;;;7.70;1.00;;;;;;5090233;28;20334;-74
2024/02/21 04:33:13;;;;;;;14.30;8.23;;;7.70;1.00;;;;;;5094159;28;20473;-73
2024/02/21 04:35:40;;;;;;;11.52;7.00;;;7.70;1.00;;;;;;5109055;27;20586;-73
2024/02/21 04:38:07;;;;;;;14.40;8.50;;;7.60;1.00;;;;;;5113330;27;20244;-72
2024/02/21 04:40:35;;;;;;;19.15;8.60;;;7.60;1.00;;;;;;5113854;27;20507;-74
2024/02/21 04:43:02;;;;;;;15.23;8.83;;;7.60;1.00;;;;;;5105693;27;20334;-73
2024/02/21 04:45:29;;;;;;;16.65;8.68;;;7.70;1.00;;;;;;5088806;28;20544;-73
2024/02/21 04:47:56;;;;;;;15.57;9.43;;;7.70;1.00;;;;;;5092495;27;21760;-74
2024/02/21 04:50:23;;;;;;;20.45;9.68;;;7.60;1.00;;;;;;5107251;27;20242;-73
2024/02/21 04:52:50;;;;;;;12.25;8.57;;;7.60;1.00;;;;;;5110491;27;20749;-73
2024/02/21 04:55:17;;;;;;;19.52;9.77;;;7.70;1.00;;;;;;5110213;27;20262;-74
2024/02/21 04:57:45;;;;;;;16.52;8.23;;;7.70;1.00;;;;;;5106671;27;20231;-74
2024/02/21 05:00:13;;;;;;;15.43;9.35;;;7.80;1.00;;;;;;5108454;27;20325;-72
2024/02/21 05:02:42;;;;;;;17.60;9.53;;;7.80;1.00;;;;;;5094543;27;20251;-76
2024/02/21 05:05:09;;;;;;;18.02;9.13;;;7.80;1.00;;;;;;5088854;27;20451;-74
2024/02/21 05:07:36;;;;;;;17.60;9.30;;;7.80;1.00;;;;;;5086550;28;20240;-73
2024/02/21 05:10:04;;;;;;;14.05;9.40;;;7.80;1.00;;;;;;5070391;28;20455;-72
2024/02/21 05:12:31;;;;;;;18.53;9.20;;;7.80;1.00;;;;;;5066816;28;20273;-74
2024/02/21 05:14:59;;;;;;;12.93;9.45;;;7.80;1.00;;;;;;5048616;28;20447;-72
2024/02/21 05:17:26;;;;;;;17.50;8.00;;;7.80;1.00;;;;;;5054349;28;20253;-74
2024/02/21 05:19:53;;;;;;;17.58;9.25;;;7.90;1.00;;;;;;5063381;28;20248;-73
2024/02/21 05:22:21;;;;;;;16.20;8.93;;;7.90;1.00;;;;;;5049244;28;20757;-75
2024/02/21 05:24:48;;;;;;;18.50;9.50;;;7.90;1.00;;;;;;5061893;28;20463;-74
2024/02/21 05:27:15;;;;;;;15.90;9.20;;;7.80;1.00;;;;;;5054753;28;20288;-74
2024/02/21 05:29:45;;;;;;;19.70;8.90;;;7.80;1.00;;;;;;5042425;28;20416;-73
2024/02/21 05:32:13;;;;;;;13.82;9.82;;;7.80;1.00;;;;;;5047898;28;20723;-74
2024/02/21 05:34:40;;;;;;;14.85;9.70;;;7.80;1.00;;;;;;5048180;28;20290;-75
2024/02/21 05:37:07;;;;;;;12.88;8.90;;;7.80;1.00;;;;;;5054540;28;20338;-74
2024/02/21 05:39:34;;;;;;;15.43;9.80;;;7.80;1.00;;;;;;5052999;28;20235;-73
2024/02/21 05:42:02;;;;;;;23.10;10.63;;;7.80;1.00;;;;;;5068602;28;20795;-75
2024/02/21 05:44:29;;;;;;;17.90;8.73;;;7.80;1.00;;;;;;5059924;28;20540;-74
2024/02/21 05:46:56;;;;;;;18.90;9.33;;;7.80;1.00;;;;;;5045017;28;20501;-72
2024/02/21 05:49:24;;;;;;;16.37;9.40;;;7.80;1.00;;;;;;5053552;28;20456;-73
2024/02/21 05:51:51;;;;;;;10.88;8.45;;;7.80;1.00;;;;;;5054210;28;20463;-73
2024/02/21 05:54:18;;;;;;;14.35;9.20;;;7.80;1.00;;;;;;5063005;28;20340;-74
2024/02/21 05:56:46;;;;;;;11.83;9.07;;;7.80;1.00;;;;;;5041328;28;20245;-71
2024/02/21 05:59:14;;;;;;;16.70;9.43;;;7.80;1.00;;;;;;5049262;28;20492;-73
2024/02/21 06:01:40;;;;;;;17.17;9.17;;;7.80;1.00;;;;;;5046076;28;20720;-73
2024/02/21 06:04:06;;;;;;;15.00;9.60;;;7.80;1.00;;;;;;5049010;28;20458;-73
2024/02/21 06:06:35;;;;;;;20.13;9.50;;;7.80;1.00;;;;;;5083315;28;20537;-74
2024/02/21 06:09:02;;;;;;;16.80;9.93;;;7.80;1.00;;;;;;5086733;28;20359;-73
2024/02/21 06:11:29;;;;;;;18.53;9.97;;;7.80;1.00;;;;;;5082522;27;20491;-73
2024/02/21 06:13:59;;;;;;;16.20;9.05;;;7.80;1.00;;;;;;5083598;28;20459;-72
2024/02/21 06:16:26;;;;;;;20.97;10.80;;;7.80;1.00;;;;;;5088300;28;20244;-75
2024/02/21 06:18:53;;;;;;;16.75;10.25;;;7.80;1.00;;;;;;5089863;28;20473;-72
2024/02/21 06:21:23;;;;;;;13.98;8.40;;;7.80;1.00;;;;;;5102263;27;20243;-72
2024/02/21 06:23:52;;;;;;;16.20;10.32;;;7.80;1.00;;;;;;5097969;27;20272;-74
2024/02/21 06:26:18;;;;;;;18.20;9.07;;;7.80;1.00;;;;;;5101918;27;20287;-73
2024/02/21 06:28:46;;;;;;;18.53;9.20;;;7.80;1.00;;;;;;5093334;27;20801;-75
2024/02/21 06:31:16;;;;;;;13.77;9.45;;;7.80;1.00;;;;;;5086083;28;20978;-75
2024/02/21 06:33:43;;;;;;;17.38;10.45;;;7.80;1.00;;;;;;5090902;28;20227;-75
2024/02/21 06:36:10;;;;;;;11.87;9.30;;;7.80;1.00;;;;;;5088586;27;20259;-74
2024/02/21 06:38:37;;;;;;;14.52;9.95;;;7.80;1.00;;;;;;5102115;27;21294;-74
2024/02/21 06:41:07;;;;;;;14.63;9.80;;;7.80;1.00;;;;;;5101455;27;20239;-72
2024/02/21 06:43:34;;;;;;;13.60;8.40;;;7.90;1.00;;;;;;5105158;27;20622;-74
2024/02/21 06:46:01;;;;;;;16.50;9.23;;;7.90;1.00;;;;;;5105211;27;21222;-73
2024/02/21 06:48:28;;;;;;;14.83;9.80;;;7.90;1.00;;;;;;5106376;27;20453;-73
2024/02/21 06:50:55;;;;;;;13.03;9.47;;;7.90;1.00;;;;;;5110375;27;20550;-73
2024/02/21 06:53:22;;;;;;;13.65;9.13;;;7.90;1.00;;;;;;5101940;27;20458;-74
2024/02/21 06:55:50;;;;;;;22.40;10.27;;;8.00;1.00;;;;;;5087819;28;20314;-73
2024/02/21 06:58:18;;;;;;;14.23;11.40;;;8.00;1.00;;;;;;5090550;28;20470;-71
2024/02/21 07:00:48;;;;;;;12.35;8.50;;;8.00;1.00;;;;;;5089892;27;20313;-73
2024/02/21 07:03:15;;;;;;;16.52;8.98;;;8.00;1.00;;;;;;5097672;27;20969;-71
2024/02/21 07:05:42;;;;;;;16.83;9.20;;;8.00;1.00;;;;;;5086192;28;20264;-72
2024/02/21 07:08:09;;;;;;;14.73;9.90;;;8.00;1.00;;;;;;5095262;27;20485;-71
2024/02/21 07:10:36;;;;;;;15.10;9.20;;;8.00;1.00;;;;;;5092551;27;20478;-73
2024/02/21 07:13:04;;;;;;;16.27;8.93;;;8.00;1.00;;;;;;5082822;28;20462;-71
2024/02/21 07:15:33;;;;;;;15.73;9.73;;;8.00;1.00;;;;;;5084579;28;20247;-72
2024/02/21 07:18:00;;;;;;;16.58;10.73;;;8.10;1.00;;;;;;5099572;27;21036;-71
2024/02/21 07:20:27;;;;;;;15.93;9.40;;;8.10;1.00;;;;;;5093196;27;20584;-73
2024/02/21 07:22:54;;;;;;;14.20;9.00;;;8.20;1.00;;;;;;5082401;28;20454;-72
2024/02/21 07:25:21;;;;;;;20.17;10.53;;;8.20;1.00;;;;;;5084008;28;20561;-73
2024/02/21 07:27:48;;;;;;;15.67;9.73;;;8.20;1.00;;;;;;5087006;28;20986;-73
2024/02/21 07:30:15;;;;;;;11.57;9.27;;;8.20;1.00;;;;;;5091048;27;20553;-74
2024/02/21 07:32:44;;;;;;;12.38;8.32;;;8.20;1.00;;;;;;5102339;27;21104;-73
2024/02/21 07:35:11;;;;;;;13.40;8.73;;;8.20;1.00;;;;;;5085099;28;20248;-74
2024/02/21 07:37:38;;;;;;;13.13;9.63;;;8.20;1.00;;;;;;5094541;27;20493;-73
2024/02/21 07:40:07;;;;;;;14.07;8.67;;;8.30;1.00;;;;;;5081481;28;20580;-72
2024/02/21 07:42:35;;;;;;;15.57;9.60;;;8.40;1.00;;;;;;5087022;27;20553;-74
2024/02/21 07:45:03;;;;;;;12.30;8.60;;;8.40;1.00;;;;;;5094433;27;20471;-72
2024/02/21 07:47:30;;;;;;;15.77;12.80;;;8.40;1.00;;;;;;5079378;28;20481;-73
2024/02/21 07:49:59;;;;;;;11.63;8.20;;;8.40;1.00;;;;;;5087051;28;20437;-71
2024/02/21 07:52:26;;;;;;;11.43;8.00;;;8.40;1.00;;;;;;5083487;28;20538;-74
2024/02/21 07:54:54;;;;;;;14.10;8.57;;;8.50;1.00;;;;;;5099175;27;20553;-72
2024/02/21 07:57:21;;;;;;;12.77;8.70;;;8.50;1.00;;;;;;5086238;27;20807;-72
2024/02/21 07:59:49;;;;;;;11.90;8.10;;;8.50;1.00;;;;;;5087089;28;20979;-73
2024/02/21 08:02:15;;;;;;;11.80;8.02;;;8.50;1.00;;;;;;5081698;27;21033;-73
2024/02/21 08:04:43;;;;;;;11.57;8.13;;;8.50;1.00;;;;;;5072104;28;20385;-75
2024/02/21 08:07:12;;;;;;;13.90;8.40;;;8.50;1.00;;;;;;5076826;28;20447;-74
2024/02/21 08:09:44;;;;;;;12.67;8.20;;;8.60;1.00;;;;;;5071732;28;20566;-76
2024/02/21 08:12:11;;;;;;;10.47;7.50;;;8.50;1.00;;;;;;5083461;28;20555;-73
2024/02/21 08:14:38;;;;;;;12.13;8.50;;;8.70;1.00;;;;;;5089761;28;20469;-74
2024/02/21 08:17:05;;;;;;;11.70;8.63;;;8.70;1.00;;;;;;5083844;28;20458;-74
2024/02/21 08:19:33;;;;;;;13.83;7.90;;;8.80;1.00;;;;;;5094667;27;20481;-73
2024/02/21 08:22:03;;;;;;;11.63;7.60;;;8.80;1.00;;;;;;5087357;28;21041;-78
2024/02/21 08:24:33;;;;;;;13.93;8.00;;;8.80;1.00;;;;;;5078732;28;20462;-73
2024/02/21 08:27:00;;;;;;;13.80;8.63;;;8.90;1.00;;;;;;5084663;28;20490;-74
2024/02/21 08:29:27;;;;;;;14.23;8.97;;;8.90;1.00;;;;;;5087815;27;20475;-76
2024/02/21 08:31:54;;;;;;;13.23;9.00;;;9.00;1.00;;;;;;5094994;27;20541;-75
2024/02/21 08:34:29;;;;;;;10.93;7.70;;;9.10;1.00;;;;;;5084510;28;20577;-78
2024/02/21 08:36:56;;;;;;;9.90;8.90;;;9.10;1.00;;;;;;5092316;27;20591;-73
2024/02/21 08:39:24;;;;;;;12.27;9.50;;;9.10;1.00;;;;;;5093260;28;20481;-79
2024/02/21 08:41:52;;;;;;;11.50;7.73;;;9.10;1.00;;;;;;5089366;27;20458;-73
2024/02/21 08:44:19;;;;;;;12.63;8.70;;;9.20;1.00;;;;;;5098553;27;20473;-72
2024/02/21 08:46:47;;;;;;;12.40;8.63;;;9.30;1.00;;;;;;5100183;27;20558;-72
2024/02/21 08:49:14;;;;;;;13.57;9.67;;;9.30;1.00;;;;;;5085034;28;20470;-77
2024/02/21 08:51:42;;;;;;;16.80;9.57;;;9.40;1.00;;;;;;5086051;28;20981;-74
2024/02/21 08:54:09;;;;;;;12.17;8.77;;;9.40;1.00;;;;;;5080418;27;20450;-74
2024/02/21 08:56:39;;;;;;;14.23;9.03;;;9.50;1.00;;;;;;5095374;27;20450;-72
2024/02/21 08:59:08;;;;;;;13.67;9.00;;;9.50;1.00;;;;;;5086819;27;20557;-73
2024/02/21 09:01:35;;;;;;;14.37;9.47;;;9.50;1.00;;;;;;5088910;27;20457;-73
2024/02/21 09:04:02;;;;;;;11.33;8.80;;;9.60;1.00;;;;;;5085400;27;20562;-72
2024/02/21 09:06:30;;;;;;;18.40;9.20;;;9.70;1.00;;;;;;5083698;27;20468;-75
2024/02/21 09:09:00;;;;;;;11.50;10.00;;;9.70;1.00;;;;;;5104323;27;21088;-76
2024/02/21 09:11:28;;;;;;;15.27;10.03;;;9.80;1.00;;;;;;5091338;28;20431;-73
2024/02/21 09:13:55;;;;;;;13.00;10.40;;;9.90;1.00;;;;;;5095766;27;20462;-74
2024/02/21 09:16:25;;;;;;;11.90;8.60;;;10.00;1.00;;;;;;5100383;27;20468;-76
2024/02/21 09:18:53;;;;;;;16.73;9.70;;;10.10;1.00;;;;;;5100505;27;20486;-76
2024/02/21 09:21:20;;;;;;;14.30;9.07;;;10.20;1.00;;;;;;5099279;27;20459;-76
2024/02/21 09:23:48;;;;;;;19.77;10.80;;;10.20;1.00;;;;;;5087290;28;20454;-76
2024/02/21 09:26:16;;;;;;;13.87;10.20;;;10.20;1.00;;;;;;5092841;28;21344;-76
2024/02/21 09:28:43;;;;;;;18.47;10.13;;;10.20;1.00;;;;;;5079664;28;20533;-77
2024/02/21 09:31:21;;;;;;;13.53;10.07;;;10.20;1.00;;;;;;5093171;27;20482;-78
2024/02/21 09:33:50;;;;;;;14.53;10.10;;;10.20;1.00;;;;;;5092105;27;20487;-76
2024/02/21 09:36:17;;;;;;;17.27;11.52;;;10.30;1.00;;;;;;5090982;27;20514;-73
2024/02/21 09:41:28;;;;;;;24.67;12.40;;;10.50;1.00;;;;;;5022666;28;20476;-76
2024/02/21 09:43:55;;;;;;;15.13;11.03;;;10.50;1.00;;;;;;5092277;27;20464;-77
2024/02/21 09:46:25;;;;;;;22.70;11.47;;;10.50;1.00;;;;;;5092493;27;21307;-77
2024/02/21 09:49:07;;;;;;;16.23;10.83;;;10.50;1.00;;;;;;5083477;27;20474;-75
2024/02/21 09:51:38;;;;;;;16.13;10.33;;;10.70;1.00;;;;;;5085350;28;20454;-76
2024/02/21 09:54:06;;;;;;;18.30;10.60;;;10.80;1.00;;;;;;5087175;28;21008;-77
2024/02/21 09:56:33;;;;;;;16.50;10.37;;;10.70;1.00;;;;;;5082953;28;21158;-76
2024/02/21 09:59:04;;;;;;;11.90;9.83;;;10.80;1.00;;;;;;5086856;28;20553;-77
2024/02/21 10:01:31;;;;;;;15.67;11.53;;;10.80;1.00;;;;;;5105761;27;20882;-76
2024/02/21 10:04:00;;;;;;;21.47;11.57;;;10.80;1.00;;;;;;5107289;27;20453;-76
2024/02/21 10:06:27;;;;;;;19.93;11.20;;;10.90;1.00;;;;;;5108657;27;22657;-76
2024/02/21 10:08:54;;;;;;;16.37;10.90;;;11.10;1.00;;;;;;5110435;27;20511;-75
2024/02/21 10:11:25;;;;;;;14.17;10.80;;;11.20;1.00;;;;;;5107159;27;20447;-76
2024/02/21 10:13:52;;;;;;;12.50;10.50;;;11.20;1.00;;;;;;5104725;27;20476;-77
2024/02/21 10:16:19;;;;;;;16.50;11.03;;;11.10;1.00;;;;;;5106203;27;20493;-77
2024/02/21 10:18:46;;;;;;;13.07;9.90;;;11.10;1.00;;;;;;5108314;27;20469;-77
2024/02/21 10:21:14;;;;;;;11.70;9.67;;;11.10;1.00;;;;;;5109298;27;20454;-75
2024/02/21 10:23:46;;;;;;;16.77;10.20;;;11.20;1.00;;;;;;5107337;27;20461;-77
2024/02/21 10:26:13;;;;;;;16.00;10.43;;;11.20;1.00;;;;;;5099689;27;20973;-75
2024/02/21 10:28:42;;;;;;;15.60;10.50;;;11.20;1.00;;;;;;5083667;28;20502;-76
2024/02/21 10:31:10;;;;;;;14.53;10.63;;;11.30;1.00;;;;;;5091213;27;21284;-75
2024/02/21 10:33:37;;;;;;;12.67;10.77;;;11.20;1.00;;;;;;5088673;28;20457;-75
2024/02/21 10:36:09;;;;;;;16.33;10.60;;;11.20;1.00;;;;;;5090425;27;20970;-75
2024/02/21 10:38:38;;;;;;;16.17;10.50;;;11.10;1.00;;;;;;5086461;28;20562;-77
2024/02/21 10:41:07;;;;;;;17.87;11.70;;;11.00;1.00;;;;;;5097206;27;21318;-78
2024/02/21 10:43:41;;;;;;;15.13;9.80;;;11.10;1.00;;;;;;5088475;27;20455;-74
2024/02/21 10:46:10;;;;;;;29.37;12.97;;;11.20;1.00;;;;;;5104666;27;21416;-74
2024/02/21 10:48:44;;;;;;;12.93;10.73;;;11.40;1.00;;;;;;5096921;27;21165;-73
2024/02/21 10:51:19;;;;;;;13.57;10.20;;;11.60;1.00;;;;;;5105460;27;20914;-76
2024/02/21 10:53:58;;;;;;;14.87;10.47;;;11.50;1.00;;;;;;5107634;27;20494;-74
2024/02/21 10:56:29;;;;;;;14.53;10.67;;;11.60;1.00;;;;;;5109296;27;20986;-74
2024/02/21 10:58:59;;;;;;;13.70;9.33;;;11.90;1.00;;;;;;5105892;27;20474;-76
2024/02/21 11:01:29;;;;;;;15.87;9.17;;;11.90;1.00;;;;;;5107393;27;20446;-74
2024/02/21 11:03:58;;;;;;;18.67;10.57;;;12.00;1.00;;;;;;5105624;27;20540;-74
2024/02/21 11:06:27;;;;;;;10.60;8.70;;;12.00;1.00;;;;;;5106732;27;20477;-77
2024/02/21 11:09:04;;;;;;;12.00;8.30;;;11.90;1.00;;;;;;5105447;27;20471;-74
2024/02/21 11:11:34;;;;;;;10.90;8.70;;;11.70;1.00;;;;;;5098406;27;20453;-76
2024/02/21 11:14:08;;;;;;;12.27;8.83;;;11.60;1.00;;;;;;5097443;27;20462;-76
2024/02/21 11:16:41;;;;;;;10.00;8.93;;;11.60;1.00;;;;;;5086077;28;21067;-74
2024/02/21 11:19:09;;;;;;;12.70;8.37;;;11.70;1.00;;;;;;5088800;27;20474;-75
2024/02/21 11:21:37;;;;;;;12.50;9.47;;;11.60;1.00;;;;;;5068088;28;20484;-77
2024/02/21 11:24:07;;;;;;;10.13;8.37;;;11.60;1.00;;;;;;5086734;28;20544;-76
2024/02/21 11:26:34;;;;;;;13.23;8.97;;;11.90;1.00;;;;;;5077529;28;20510;-77
2024/02/21 11:29:04;;;;;;;9.50;8.50;;;12.70;1.00;;;;;;5106032;27;20511;-76
2024/02/21 11:31:40;;;;;;;11.17;7.90;;;13.00;1.00;;;;;;5096669;27;20465;-76
2024/02/21 11:34:11;;;;;;;13.53;9.10;;;13.40;1.00;;;;;;5095408;27;20483;-75
2024/02/21 11:36:47;;;;;;;12.87;8.17;;;13.50;1.00;;;;;;5097664;27;21098;-76
2024/02/21 11:39:20;;;;;;;8.23;7.30;;;13.40;1.00;;;;;;5106940;27;20443;-74
2024/02/21 11:41:48;;;;;;;9.20;8.00;;;13.80;1.00;;;;;;5104124;27;20479;-76
2024/02/21 11:44:15;;;;;;;9.10;7.30;;;13.80;1.00;;;;;;5112463;27;20563;-76
2024/02/21 11:46:43;;;;;;;8.73;7.90;;;13.80;1.00;;;;;;5100358;27;20504;-77
2024/02/21 11:49:10;;;;;;;10.10;6.70;;;13.90;1.00;;;;;;5089461;28;20598;-75
2024/02/21 11:51:37;;;;;;;11.37;7.77;;;13.90;1.00;;;;;;5094360;27;20456;-77
2024/02/21 11:54:04;;;;;;;7.37;6.47;;;14.10;1.00;;;;;;5086906;28;20496;-75
2024/02/21 11:56:33;;;;;;;6.83;6.20;;;14.40;1.00;;;;;;5085727;28;20565;-76
2024/02/21 11:59:01;;;;;;;7.83;6.93;;;14.60;1.00;;;;;;5096586;27;20571;-76
2024/02/21 12:01:28;;;;;;;10.50;7.03;;;14.60;1.00;;;;;;5099711;27;20537;-75
2024/02/21 12:03:56;;;;;;;7.90;6.50;;;15.00;1.00;;;;;;5100964;27;20535;-74
2024/02/21 12:06:23;;;;;;;9.77;6.57;;;15.20;1.00;;;;;;5087771;28;20540;-76
2024/02/21 12:08:52;;;;;;;7.67;6.47;;;15.40;1.00;;;;;;5089249;28;21014;-75
2024/02/21 12:11:25;;;;;;;9.00;6.47;;;16.40;1.00;;;;;;5083237;28;20481;-75
2024/02/21 12:14:05;;;;;;;7.73;5.90;;;17.30;1.00;;;;;;5082617;28;20509;-76
2024/02/21 12:16:33;;;;;;;7.73;6.30;;;18.50;1.00;;;;;;5084821;28;20453;-76
2024/02/21 12:19:01;;;;;;;6.20;5.40;;;19.50;1.00;;;;;;5084156;28;20464;-77
2024/02/21 12:21:32;;;;;;;6.83;5.40;;;19.90;1.00;;;;;;5077877;28;20555;-77
2024/02/21 12:23:59;;;;;;;10.50;6.10;;;19.70;1.00;;;;;;5098530;28;20837;-76
2024/02/21 12:26:27;;;;;;;7.67;6.77;;;19.00;1.00;;;;;;5087942;27;20456;-77
2024/02/21 12:28:55;;;;;;;7.03;6.27;;;18.30;1.00;;;;;;5098443;27;20958;-76
2024/02/21 12:31:23;;;;;;;6.53;5.43;;;17.70;1.00;;;;;;5082245;28;20496;-74
2024/02/21 12:33:52;;;;;;;6.70;5.80;;;17.60;1.00;;;;;;5086645;27;20490;-76
2024/02/21 12:36:19;;;;;;;6.87;5.03;;;17.40;1.00;;;;;;5099469;27;20932;-75
2024/02/21 12:38:48;;;;;;;6.53;5.80;;;16.80;1.00;;;;;;5085850;28;20985;-76
2024/02/21 12:41:15;;;;;;;8.23;5.20;;;17.10;1.00;;;;;;5076461;28;20463;-75
2024/02/21 12:43:42;;;;;;;7.10;5.40;;;18.10;1.00;;;;;;5088371;28;20486;-77
2024/02/21 12:46:10;;;;;;;5.37;4.73;;;18.30;1.00;;;;;;5090506;27;20548;-75
2024/02/21 12:48:39;;;;;;;5.40;4.47;;;18.90;1.00;;;;;;5091579;28;20868;-75
2024/02/21 12:51:06;;;;;;;12.33;5.90;;;18.60;1.00;;;;;;5075843;27;20471;-75
2024/02/21 12:53:33;;;;;;;9.30;4.07;;;17.90;1.00;;;;;;5092448;27;20477;-76
2024/02/21 12:56:04;;;;;;;9.63;5.73;;;18.30;1.00;;;;;;5113888;27;20464;-75
2024/02/21 12:58:32;;;;;;;25.07;6.53;;;18.30;1.00;;;;;;5092909;27;20475;-73
2024/02/21 13:00:59;;;;;;;6.40;4.20;;;17.70;1.00;;;;;;5089467;27;20458;-73
2024/02/21 13:03:26;;;;;;;5.60;4.60;;;18.00;1.00;;;;;;5096953;27;20475;-75
2024/02/21 13:05:55;;;;;;;6.50;4.30;;;18.40;1.00;;;;;;5106682;27;20996;-73